sensor_id;sensor_type;location;lat;lon;timestamp;P1;durP1;ratioP1;P2;durP2;ratioP2
73814;SDS011;62145;55.648;37.602;2022-07-23T00:01:19;11.55;;;6.70;;
73814;SDS011;62145;55.648;37.602;2022-07-23T00:03:45;11.63;;;5.80;;
73814;SDS011;62145;55.648;37.602;2022-07-23T00:06:11;13.98;;;5.47;;
73814;SDS011;62145;55.648;37.602;2022-07-23T00:08:37;11.73;;;5.00;;
73814;SDS011;62145;55.648;37.602;2022-07-23T00:11:03;7.30;;;4.80;;
73814;SDS011;62145;55.648;37.602;2022-07-23T00:13:29;7.07;;;4.25;;
73814;SDS011;62145;55.648;37.602;2022-07-23T00:15:55;7.53;;;4.13;;
73814;SDS011;62145;55.648;37.602;2022-07-23T00:18:21;9.73;;;4.20;;
73814;SDS011;62145;55.648;37.602;2022-07-23T00:20:47;7.65;;;4.35;;
73814;SDS011;62145;55.648;37.602;2022-07-23T00:23:13;9.73;;;4.60;;
73814;SDS011;62145;55.648;37.602;2022-07-23T00:25:39;9.23;;;4.65;;
73814;SDS011;62145;55.648;37.602;2022-07-23T00:28:05;9.43;;;4.53;;
73814;SDS011;62145;55.648;37.602;2022-07-23T00:30:31;8.82;;;4.47;;
73814;SDS011;62145;55.648;37.602;2022-07-23T00:33:02;10.38;;;4.93;;
73814;SDS011;62145;55.648;37.602;2022-07-23T00:35:29;7.72;;;4.30;;
73814;SDS011;62145;55.648;37.602;2022-07-23T00:37:57;7.93;;;4.27;;
73814;SDS011;62145;55.648;37.602;2022-07-23T00:40:23;7.93;;;4.50;;
73814;SDS011;62145;55.648;37.602;2022-07-23T00:42:49;7.80;;;4.70;;
73814;SDS011;62145;55.648;37.602;2022-07-23T00:45:15;7.88;;;4.75;;
73814;SDS011;62145;55.648;37.602;2022-07-23T00:47:41;8.00;;;4.33;;
73814;SDS011;62145;55.648;37.602;2022-07-23T00:50:08;8.30;;;4.47;;
73814;SDS011;62145;55.648;37.602;2022-07-23T00:52:35;8.93;;;4.50;;
73814;SDS011;62145;55.648;37.602;2022-07-23T00:55:02;7.93;;;4.78;;
73814;SDS011;62145;55.648;37.602;2022-07-23T00:57:29;9.17;;;4.40;;
73814;SDS011;62145;55.648;37.602;2022-07-23T00:59:55;7.97;;;4.75;;
73814;SDS011;62145;55.648;37.602;2022-07-23T01:02:40;9.27;;;4.55;;
73814;SDS011;62145;55.648;37.602;2022-07-23T01:05:07;8.75;;;4.78;;
73814;SDS011;62145;55.648;37.602;2022-07-23T01:07:34;8.88;;;4.97;;
73814;SDS011;62145;55.648;37.602;2022-07-23T01:10:00;7.63;;;4.43;;
73814;SDS011;62145;55.648;37.602;2022-07-23T01:12:26;8.77;;;4.55;;
73814;SDS011;62145;55.648;37.602;2022-07-23T01:14:58;8.38;;;4.60;;
73814;SDS011;62145;55.648;37.602;2022-07-23T01:17:26;11.60;;;4.72;;
73814;SDS011;62145;55.648;37.602;2022-07-23T01:19:53;9.80;;;4.63;;
73814;SDS011;62145;55.648;37.602;2022-07-23T01:22:19;10.02;;;4.82;;
73814;SDS011;62145;55.648;37.602;2022-07-23T01:24:45;9.45;;;4.88;;
73814;SDS011;62145;55.648;37.602;2022-07-23T01:27:11;8.90;;;4.78;;
73814;SDS011;62145;55.648;37.602;2022-07-23T01:29:39;7.90;;;4.72;;
73814;SDS011;62145;55.648;37.602;2022-07-23T01:32:13;10.17;;;4.80;;
73814;SDS011;62145;55.648;37.602;2022-07-23T01:34:40;10.38;;;4.88;;
73814;SDS011;62145;55.648;37.602;2022-07-23T01:37:06;9.23;;;4.63;;
73814;SDS011;62145;55.648;37.602;2022-07-23T01:39:32;10.20;;;5.18;;
73814;SDS011;62145;55.648;37.602;2022-07-23T01:41:58;8.50;;;4.80;;
73814;SDS011;62145;55.648;37.602;2022-07-23T01:44:25;10.45;;;4.50;;
73814;SDS011;62145;55.648;37.602;2022-07-23T01:46:50;8.25;;;4.70;;
73814;SDS011;62145;55.648;37.602;2022-07-23T01:49:18;8.07;;;4.93;;
73814;SDS011;62145;55.648;37.602;2022-07-23T01:52:02;10.23;;;4.93;;
73814;SDS011;62145;55.648;37.602;2022-07-23T01:54:43;9.48;;;4.72;;
73814;SDS011;62145;55.648;37.602;2022-07-23T01:57:09;9.32;;;5.07;;
73814;SDS011;62145;55.648;37.602;2022-07-23T01:59:36;8.32;;;4.97;;
73814;SDS011;62145;55.648;37.602;2022-07-23T02:02:03;7.47;;;4.70;;
73814;SDS011;62145;55.648;37.602;2022-07-23T02:04:30;11.63;;;5.40;;
73814;SDS011;62145;55.648;37.602;2022-07-23T02:06:58;9.35;;;4.80;;
73814;SDS011;62145;55.648;37.602;2022-07-23T02:09:25;8.85;;;5.07;;
73814;SDS011;62145;55.648;37.602;2022-07-23T02:11:51;10.18;;;5.07;;
73814;SDS011;62145;55.648;37.602;2022-07-23T02:14:18;9.67;;;5.27;;
73814;SDS011;62145;55.648;37.602;2022-07-23T02:16:45;10.85;;;5.20;;
73814;SDS011;62145;55.648;37.602;2022-07-23T02:19:11;9.93;;;5.10;;
73814;SDS011;62145;55.648;37.602;2022-07-23T02:21:36;7.93;;;4.70;;
73814;SDS011;62145;55.648;37.602;2022-07-23T02:24:02;10.07;;;5.57;;
73814;SDS011;62145;55.648;37.602;2022-07-23T02:26:29;10.32;;;5.60;;
73814;SDS011;62145;55.648;37.602;2022-07-23T02:28:58;10.07;;;5.25;;
73814;SDS011;62145;55.648;37.602;2022-07-23T02:31:23;8.40;;;5.10;;
73814;SDS011;62145;55.648;37.602;2022-07-23T02:33:49;10.05;;;5.90;;
73814;SDS011;62145;55.648;37.602;2022-07-23T02:36:16;12.05;;;5.43;;
73814;SDS011;62145;55.648;37.602;2022-07-23T02:38:42;7.73;;;5.00;;
73814;SDS011;62145;55.648;37.602;2022-07-23T02:41:09;9.18;;;5.53;;
73814;SDS011;62145;55.648;37.602;2022-07-23T02:43:34;10.88;;;5.78;;
73814;SDS011;62145;55.648;37.602;2022-07-23T02:46:00;9.83;;;5.80;;
73814;SDS011;62145;55.648;37.602;2022-07-23T02:48:26;8.47;;;5.33;;
73814;SDS011;62145;55.648;37.602;2022-07-23T02:50:52;13.30;;;5.30;;
73814;SDS011;62145;55.648;37.602;2022-07-23T02:53:22;10.25;;;5.60;;
73814;SDS011;62145;55.648;37.602;2022-07-23T02:55:48;9.10;;;5.57;;
73814;SDS011;62145;55.648;37.602;2022-07-23T02:58:14;10.05;;;5.72;;
73814;SDS011;62145;55.648;37.602;2022-07-23T03:00:41;9.95;;;5.35;;
73814;SDS011;62145;55.648;37.602;2022-07-23T03:03:07;9.50;;;5.57;;
73814;SDS011;62145;55.648;37.602;2022-07-23T03:05:33;10.33;;;5.50;;
73814;SDS011;62145;55.648;37.602;2022-07-23T03:07:59;8.80;;;5.25;;
73814;SDS011;62145;55.648;37.602;2022-07-23T03:10:26;10.85;;;5.45;;
73814;SDS011;62145;55.648;37.602;2022-07-23T03:12:51;9.85;;;5.20;;
73814;SDS011;62145;55.648;37.602;2022-07-23T03:15:17;10.73;;;5.93;;
73814;SDS011;62145;55.648;37.602;2022-07-23T03:17:43;8.88;;;5.53;;
73814;SDS011;62145;55.648;37.602;2022-07-23T03:20:09;11.10;;;5.82;;
73814;SDS011;62145;55.648;37.602;2022-07-23T03:22:37;10.23;;;5.90;;
73814;SDS011;62145;55.648;37.602;2022-07-23T03:25:03;8.70;;;6.07;;
73814;SDS011;62145;55.648;37.602;2022-07-23T03:27:33;10.38;;;5.95;;
73814;SDS011;62145;55.648;37.602;2022-07-23T03:29:59;10.57;;;5.87;;
73814;SDS011;62145;55.648;37.602;2022-07-23T03:32:25;9.55;;;6.07;;
73814;SDS011;62145;55.648;37.602;2022-07-23T03:34:51;9.40;;;5.50;;
73814;SDS011;62145;55.648;37.602;2022-07-23T03:37:17;8.68;;;5.50;;
73814;SDS011;62145;55.648;37.602;2022-07-23T03:39:45;8.68;;;5.97;;
73814;SDS011;62145;55.648;37.602;2022-07-23T03:42:11;8.07;;;5.83;;
73814;SDS011;62145;55.648;37.602;2022-07-23T03:44:37;8.50;;;6.00;;
73814;SDS011;62145;55.648;37.602;2022-07-23T03:47:03;9.43;;;5.88;;
73814;SDS011;62145;55.648;37.602;2022-07-23T03:49:30;9.57;;;5.78;;
73814;SDS011;62145;55.648;37.602;2022-07-23T03:51:55;10.07;;;6.30;;
73814;SDS011;62145;55.648;37.602;2022-07-23T03:54:21;10.90;;;5.97;;
73814;SDS011;62145;55.648;37.602;2022-07-23T03:56:47;9.57;;;6.07;;
73814;SDS011;62145;55.648;37.602;2022-07-23T03:59:13;11.57;;;6.27;;
73814;SDS011;62145;55.648;37.602;2022-07-23T04:01:39;9.02;;;6.30;;
73814;SDS011;62145;55.648;37.602;2022-07-23T04:04:05;9.05;;;6.30;;
73814;SDS011;62145;55.648;37.602;2022-07-23T04:06:34;11.15;;;6.53;;
73814;SDS011;62145;55.648;37.602;2022-07-23T04:09:01;8.90;;;6.13;;
73814;SDS011;62145;55.648;37.602;2022-07-23T04:11:28;11.75;;;6.43;;
73814;SDS011;62145;55.648;37.602;2022-07-23T04:13:54;9.55;;;5.93;;
73814;SDS011;62145;55.648;37.602;2022-07-23T04:16:20;9.93;;;6.65;;
73814;SDS011;62145;55.648;37.602;2022-07-23T04:18:46;9.37;;;6.50;;
73814;SDS011;62145;55.648;37.602;2022-07-23T04:21:16;8.15;;;6.32;;
73814;SDS011;62145;55.648;37.602;2022-07-23T04:23:43;8.55;;;6.40;;
73814;SDS011;62145;55.648;37.602;2022-07-23T04:26:09;9.32;;;6.70;;
73814;SDS011;62145;55.648;37.602;2022-07-23T04:28:35;10.33;;;6.50;;
73814;SDS011;62145;55.648;37.602;2022-07-23T04:31:01;11.48;;;7.10;;
73814;SDS011;62145;55.648;37.602;2022-07-23T04:33:28;11.32;;;7.25;;
73814;SDS011;62145;55.648;37.602;2022-07-23T04:35:57;9.48;;;6.68;;
73814;SDS011;62145;55.648;37.602;2022-07-23T04:38:23;10.57;;;6.77;;
73814;SDS011;62145;55.648;37.602;2022-07-23T04:40:51;10.15;;;6.90;;
73814;SDS011;62145;55.648;37.602;2022-07-23T04:43:17;10.52;;;6.60;;
73814;SDS011;62145;55.648;37.602;2022-07-23T04:45:48;11.18;;;8.15;;
73814;SDS011;62145;55.648;37.602;2022-07-23T04:48:14;9.90;;;7.17;;
73814;SDS011;62145;55.648;37.602;2022-07-23T04:50:40;10.93;;;7.20;;
73814;SDS011;62145;55.648;37.602;2022-07-23T04:53:14;10.80;;;7.10;;
73814;SDS011;62145;55.648;37.602;2022-07-23T04:55:41;12.05;;;7.18;;
73814;SDS011;62145;55.648;37.602;2022-07-23T04:58:07;9.80;;;6.90;;
73814;SDS011;62145;55.648;37.602;2022-07-23T05:00:33;8.15;;;7.05;;
73814;SDS011;62145;55.648;37.602;2022-07-23T05:02:58;11.03;;;7.43;;
73814;SDS011;62145;55.648;37.602;2022-07-23T05:05:24;10.10;;;6.95;;
73814;SDS011;62145;55.648;37.602;2022-07-23T05:07:54;9.00;;;7.10;;
73814;SDS011;62145;55.648;37.602;2022-07-23T05:10:20;10.70;;;7.63;;
73814;SDS011;62145;55.648;37.602;2022-07-23T05:12:46;10.10;;;7.00;;
73814;SDS011;62145;55.648;37.602;2022-07-23T05:15:12;14.88;;;8.02;;
73814;SDS011;62145;55.648;37.602;2022-07-23T05:17:38;10.77;;;7.53;;
73814;SDS011;62145;55.648;37.602;2022-07-23T05:20:10;12.03;;;8.33;;
73814;SDS011;62145;55.648;37.602;2022-07-23T05:22:36;13.45;;;7.90;;
73814;SDS011;62145;55.648;37.602;2022-07-23T05:25:03;12.82;;;8.48;;
73814;SDS011;62145;55.648;37.602;2022-07-23T05:27:30;11.65;;;8.40;;
73814;SDS011;62145;55.648;37.602;2022-07-23T05:29:56;13.07;;;8.18;;
73814;SDS011;62145;55.648;37.602;2022-07-23T05:32:22;11.67;;;8.13;;
73814;SDS011;62145;55.648;37.602;2022-07-23T05:34:56;12.32;;;8.30;;
73814;SDS011;62145;55.648;37.602;2022-07-23T05:37:22;13.93;;;8.02;;
73814;SDS011;62145;55.648;37.602;2022-07-23T05:39:48;10.95;;;7.97;;
73814;SDS011;62145;55.648;37.602;2022-07-23T05:42:14;10.73;;;8.00;;
73814;SDS011;62145;55.648;37.602;2022-07-23T05:44:40;10.32;;;7.95;;
73814;SDS011;62145;55.648;37.602;2022-07-23T05:47:06;13.82;;;8.90;;
73814;SDS011;62145;55.648;37.602;2022-07-23T05:49:32;12.57;;;8.43;;
73814;SDS011;62145;55.648;37.602;2022-07-23T05:52:22;11.77;;;8.53;;
73814;SDS011;62145;55.648;37.602;2022-07-23T05:55:11;11.35;;;8.85;;
73814;SDS011;62145;55.648;37.602;2022-07-23T05:57:38;12.85;;;8.75;;
73814;SDS011;62145;55.648;37.602;2022-07-23T06:00:05;15.30;;;9.18;;
73814;SDS011;62145;55.648;37.602;2022-07-23T06:02:39;11.30;;;8.23;;
73814;SDS011;62145;55.648;37.602;2022-07-23T06:05:06;10.77;;;8.37;;
73814;SDS011;62145;55.648;37.602;2022-07-23T06:07:33;10.82;;;8.57;;
73814;SDS011;62145;55.648;37.602;2022-07-23T06:09:59;13.70;;;8.85;;
73814;SDS011;62145;55.648;37.602;2022-07-23T06:12:25;14.60;;;8.40;;
73814;SDS011;62145;55.648;37.602;2022-07-23T06:14:51;13.40;;;8.33;;
73814;SDS011;62145;55.648;37.602;2022-07-23T06:17:18;10.75;;;8.30;;
73814;SDS011;62145;55.648;37.602;2022-07-23T06:19:44;9.90;;;8.23;;
73814;SDS011;62145;55.648;37.602;2022-07-23T06:22:10;11.25;;;8.52;;
73814;SDS011;62145;55.648;37.602;2022-07-23T06:24:36;9.67;;;7.83;;
73814;SDS011;62145;55.648;37.602;2022-07-23T06:27:02;9.05;;;7.80;;
73814;SDS011;62145;55.648;37.602;2022-07-23T06:29:29;9.43;;;8.07;;
73814;SDS011;62145;55.648;37.602;2022-07-23T06:31:55;10.48;;;7.90;;
73814;SDS011;62145;55.648;37.602;2022-07-23T06:34:21;10.83;;;7.93;;
73814;SDS011;62145;55.648;37.602;2022-07-23T06:36:47;8.90;;;7.80;;
73814;SDS011;62145;55.648;37.602;2022-07-23T06:39:12;11.50;;;8.20;;
73814;SDS011;62145;55.648;37.602;2022-07-23T06:41:38;10.43;;;7.80;;
73814;SDS011;62145;55.648;37.602;2022-07-23T06:44:04;9.10;;;8.10;;
73814;SDS011;62145;55.648;37.602;2022-07-23T06:46:33;10.98;;;7.72;;
73814;SDS011;62145;55.648;37.602;2022-07-23T06:48:59;10.90;;;7.65;;
73814;SDS011;62145;55.648;37.602;2022-07-23T06:51:27;10.10;;;7.90;;
73814;SDS011;62145;55.648;37.602;2022-07-23T06:53:53;11.67;;;7.90;;
73814;SDS011;62145;55.648;37.602;2022-07-23T06:56:19;8.10;;;7.28;;
73814;SDS011;62145;55.648;37.602;2022-07-23T06:58:45;10.57;;;7.45;;
73814;SDS011;62145;55.648;37.602;2022-07-23T07:01:11;11.23;;;7.77;;
73814;SDS011;62145;55.648;37.602;2022-07-23T07:03:37;10.63;;;7.78;;
73814;SDS011;62145;55.648;37.602;2022-07-23T07:06:03;8.98;;;7.97;;
73814;SDS011;62145;55.648;37.602;2022-07-23T07:08:28;8.50;;;7.47;;
73814;SDS011;62145;55.648;37.602;2022-07-23T07:10:54;8.55;;;7.57;;
73814;SDS011;62145;55.648;37.602;2022-07-23T07:13:20;10.23;;;7.60;;
73814;SDS011;62145;55.648;37.602;2022-07-23T07:15:46;10.93;;;7.47;;
73814;SDS011;62145;55.648;37.602;2022-07-23T07:18:12;10.68;;;7.15;;
73814;SDS011;62145;55.648;37.602;2022-07-23T07:20:38;8.43;;;6.67;;
73814;SDS011;62145;55.648;37.602;2022-07-23T07:23:04;9.63;;;7.10;;
73814;SDS011;62145;55.648;37.602;2022-07-23T07:25:29;10.48;;;7.47;;
73814;SDS011;62145;55.648;37.602;2022-07-23T07:27:55;9.43;;;7.17;;
73814;SDS011;62145;55.648;37.602;2022-07-23T07:30:21;9.00;;;7.18;;
73814;SDS011;62145;55.648;37.602;2022-07-23T07:32:47;11.38;;;7.68;;
73814;SDS011;62145;55.648;37.602;2022-07-23T07:35:13;10.65;;;7.47;;
73814;SDS011;62145;55.648;37.602;2022-07-23T07:37:39;9.90;;;7.83;;
73814;SDS011;62145;55.648;37.602;2022-07-23T07:40:05;9.15;;;7.63;;
73814;SDS011;62145;55.648;37.602;2022-07-23T07:42:31;10.20;;;8.25;;
73814;SDS011;62145;55.648;37.602;2022-07-23T07:44:57;10.80;;;7.72;;
73814;SDS011;62145;55.648;37.602;2022-07-23T07:47:23;9.93;;;7.70;;
73814;SDS011;62145;55.648;37.602;2022-07-23T07:49:49;10.68;;;7.50;;
73814;SDS011;62145;55.648;37.602;2022-07-23T07:52:15;9.35;;;7.38;;
73814;SDS011;62145;55.648;37.602;2022-07-23T07:54:41;9.77;;;7.30;;
73814;SDS011;62145;55.648;37.602;2022-07-23T07:57:08;11.30;;;7.93;;
73814;SDS011;62145;55.648;37.602;2022-07-23T07:59:34;11.27;;;7.97;;
73814;SDS011;62145;55.648;37.602;2022-07-23T08:01:59;11.17;;;8.00;;
73814;SDS011;62145;55.648;37.602;2022-07-23T08:04:25;12.73;;;7.93;;
73814;SDS011;62145;55.648;37.602;2022-07-23T08:06:51;9.38;;;8.35;;
73814;SDS011;62145;55.648;37.602;2022-07-23T08:09:17;8.47;;;7.40;;
73814;SDS011;62145;55.648;37.602;2022-07-23T08:11:43;9.65;;;7.60;;
73814;SDS011;62145;55.648;37.602;2022-07-23T08:14:08;10.38;;;8.20;;
73814;SDS011;62145;55.648;37.602;2022-07-23T08:16:36;10.17;;;7.77;;
73814;SDS011;62145;55.648;37.602;2022-07-23T08:19:02;10.82;;;7.28;;
73814;SDS011;62145;55.648;37.602;2022-07-23T08:21:28;10.90;;;7.40;;
73814;SDS011;62145;55.648;37.602;2022-07-23T08:23:54;9.17;;;7.63;;
73814;SDS011;62145;55.648;37.602;2022-07-23T08:26:19;11.07;;;7.70;;
73814;SDS011;62145;55.648;37.602;2022-07-23T08:28:46;12.00;;;8.00;;
73814;SDS011;62145;55.648;37.602;2022-07-23T08:31:12;9.85;;;8.07;;
73814;SDS011;62145;55.648;37.602;2022-07-23T08:33:40;10.85;;;7.53;;
73814;SDS011;62145;55.648;37.602;2022-07-23T08:36:06;12.23;;;8.33;;
73814;SDS011;62145;55.648;37.602;2022-07-23T08:38:32;10.35;;;8.10;;
73814;SDS011;62145;55.648;37.602;2022-07-23T08:40:58;11.23;;;8.30;;
73814;SDS011;62145;55.648;37.602;2022-07-23T08:43:29;9.47;;;8.00;;
73814;SDS011;62145;55.648;37.602;2022-07-23T08:45:56;10.75;;;8.13;;
73814;SDS011;62145;55.648;37.602;2022-07-23T08:48:25;10.50;;;8.07;;
73814;SDS011;62145;55.648;37.602;2022-07-23T08:50:56;13.57;;;8.30;;
73814;SDS011;62145;55.648;37.602;2022-07-23T08:53:24;11.27;;;7.68;;
73814;SDS011;62145;55.648;37.602;2022-07-23T08:55:51;9.80;;;7.50;;
73814;SDS011;62145;55.648;37.602;2022-07-23T08:58:19;10.75;;;7.60;;
73814;SDS011;62145;55.648;37.602;2022-07-23T09:00:45;12.02;;;7.65;;
73814;SDS011;62145;55.648;37.602;2022-07-23T09:03:22;9.32;;;7.22;;
73814;SDS011;62145;55.648;37.602;2022-07-23T09:05:49;11.93;;;7.85;;
73814;SDS011;62145;55.648;37.602;2022-07-23T09:08:17;13.50;;;7.17;;
73814;SDS011;62145;55.648;37.602;2022-07-23T09:16:00;11.52;;;8.35;;
73814;SDS011;62145;55.648;37.602;2022-07-23T09:18:47;13.15;;;8.32;;
73814;SDS011;62145;55.648;37.602;2022-07-23T09:21:21;11.03;;;8.10;;
73814;SDS011;62145;55.648;37.602;2022-07-23T09:24:01;10.45;;;7.80;;
73814;SDS011;62145;55.648;37.602;2022-07-23T09:31:47;10.95;;;8.15;;
73814;SDS011;62145;55.648;37.602;2022-07-23T09:34:24;10.77;;;8.20;;
73814;SDS011;62145;55.648;37.602;2022-07-23T09:36:56;10.57;;;8.20;;
73814;SDS011;62145;55.648;37.602;2022-07-23T09:39:30;10.77;;;8.48;;
73814;SDS011;62145;55.648;37.602;2022-07-23T09:41:57;10.75;;;8.30;;
73814;SDS011;62145;55.648;37.602;2022-07-23T09:44:24;12.73;;;8.45;;
73814;SDS011;62145;55.648;37.602;2022-07-23T09:46:50;11.73;;;8.33;;
73814;SDS011;62145;55.648;37.602;2022-07-23T09:49:21;12.90;;;7.90;;
73814;SDS011;62145;55.648;37.602;2022-07-23T09:51:51;10.68;;;7.80;;
73814;SDS011;62145;55.648;37.602;2022-07-23T09:57:09;12.60;;;8.13;;
73814;SDS011;62145;55.648;37.602;2022-07-23T09:59:40;11.48;;;8.52;;
73814;SDS011;62145;55.648;37.602;2022-07-23T10:02:08;11.48;;;8.50;;
73814;SDS011;62145;55.648;37.602;2022-07-23T10:04:53;12.10;;;8.25;;
73814;SDS011;62145;55.648;37.602;2022-07-23T10:07:28;10.88;;;8.20;;
73814;SDS011;62145;55.648;37.602;2022-07-23T10:10:38;11.63;;;8.63;;
73814;SDS011;62145;55.648;37.602;2022-07-23T10:13:25;12.50;;;8.57;;
73814;SDS011;62145;55.648;37.602;2022-07-23T10:16:11;14.93;;;9.20;;
73814;SDS011;62145;55.648;37.602;2022-07-23T10:18:37;12.48;;;8.20;;
73814;SDS011;62145;55.648;37.602;2022-07-23T10:21:05;14.48;;;8.80;;
73814;SDS011;62145;55.648;37.602;2022-07-23T10:26:12;12.10;;;8.75;;
73814;SDS011;62145;55.648;37.602;2022-07-23T10:44:08;11.37;;;8.80;;
73814;SDS011;62145;55.648;37.602;2022-07-23T10:46:35;12.57;;;8.80;;
73814;SDS011;62145;55.648;37.602;2022-07-23T10:49:24;12.75;;;9.07;;
73814;SDS011;62145;55.648;37.602;2022-07-23T10:55:38;13.32;;;8.77;;
73814;SDS011;62145;55.648;37.602;2022-07-23T10:57:28;10.53;;;8.50;;
73814;SDS011;62145;55.648;37.602;2022-07-23T11:02:28;11.77;;;8.75;;
73814;SDS011;62145;55.648;37.602;2022-07-23T11:04:59;12.73;;;8.98;;
73814;SDS011;62145;55.648;37.602;2022-07-23T11:07:26;11.23;;;8.73;;
73814;SDS011;62145;55.648;37.602;2022-07-23T11:09:52;12.27;;;8.70;;
73814;SDS011;62145;55.648;37.602;2022-07-23T11:17:23;11.35;;;8.60;;
73814;SDS011;62145;55.648;37.602;2022-07-23T11:22:38;10.35;;;8.43;;
73814;SDS011;62145;55.648;37.602;2022-07-23T11:25:05;13.27;;;9.63;;
73814;SDS011;62145;55.648;37.602;2022-07-23T11:27:41;12.80;;;8.60;;
73814;SDS011;62145;55.648;37.602;2022-07-23T11:30:09;11.15;;;8.48;;
73814;SDS011;62145;55.648;37.602;2022-07-23T11:32:54;13.05;;;8.93;;
73814;SDS011;62145;55.648;37.602;2022-07-23T11:35:41;11.50;;;8.98;;
73814;SDS011;62145;55.648;37.602;2022-07-23T11:38:15;11.45;;;9.02;;
73814;SDS011;62145;55.648;37.602;2022-07-23T11:40:46;12.50;;;9.23;;
73814;SDS011;62145;55.648;37.602;2022-07-23T11:43:13;12.55;;;8.60;;
73814;SDS011;62145;55.648;37.602;2022-07-23T11:45:43;11.05;;;9.15;;
73814;SDS011;62145;55.648;37.602;2022-07-23T11:50:43;11.50;;;8.80;;
73814;SDS011;62145;55.648;37.602;2022-07-23T11:53:11;11.07;;;8.50;;
73814;SDS011;62145;55.648;37.602;2022-07-23T11:55:36;11.82;;;9.02;;
73814;SDS011;62145;55.648;37.602;2022-07-23T11:58:04;13.63;;;9.05;;
73814;SDS011;62145;55.648;37.602;2022-07-23T12:00:30;11.93;;;8.57;;
73814;SDS011;62145;55.648;37.602;2022-07-23T12:02:58;13.32;;;8.73;;
73814;SDS011;62145;55.648;37.602;2022-07-23T12:05:35;12.65;;;8.90;;
73814;SDS011;62145;55.648;37.602;2022-07-23T12:08:03;11.55;;;8.30;;
73814;SDS011;62145;55.648;37.602;2022-07-23T12:10:33;13.80;;;9.43;;
73814;SDS011;62145;55.648;37.602;2022-07-23T12:13:13;10.77;;;8.60;;
73814;SDS011;62145;55.648;37.602;2022-07-23T12:15:47;11.82;;;8.88;;
73814;SDS011;62145;55.648;37.602;2022-07-23T12:18:16;14.10;;;9.15;;
73814;SDS011;62145;55.648;37.602;2022-07-23T12:20:45;11.00;;;9.05;;
73814;SDS011;62145;55.648;37.602;2022-07-23T12:23:13;11.55;;;9.10;;
73814;SDS011;62145;55.648;37.602;2022-07-23T12:25:41;11.10;;;8.27;;
73814;SDS011;62145;55.648;37.602;2022-07-23T12:28:09;11.75;;;8.80;;
73814;SDS011;62145;55.648;37.602;2022-07-23T12:30:43;12.55;;;9.07;;
73814;SDS011;62145;55.648;37.602;2022-07-23T12:33:14;11.93;;;8.95;;
73814;SDS011;62145;55.648;37.602;2022-07-23T12:35:47;11.00;;;8.98;;
73814;SDS011;62145;55.648;37.602;2022-07-23T12:38:14;11.80;;;8.60;;
73814;SDS011;62145;55.648;37.602;2022-07-23T12:40:48;12.20;;;8.90;;
73814;SDS011;62145;55.648;37.602;2022-07-23T12:43:20;14.98;;;8.80;;
73814;SDS011;62145;55.648;37.602;2022-07-23T12:45:49;13.65;;;8.82;;
73814;SDS011;62145;55.648;37.602;2022-07-23T12:50:51;12.10;;;8.60;;
73814;SDS011;62145;55.648;37.602;2022-07-23T12:53:22;13.07;;;9.13;;
73814;SDS011;62145;55.648;37.602;2022-07-23T12:55:49;16.08;;;9.90;;
73814;SDS011;62145;55.648;37.602;2022-07-23T12:58:17;12.93;;;9.35;;
73814;SDS011;62145;55.648;37.602;2022-07-23T13:03:20;12.07;;;8.80;;
73814;SDS011;62145;55.648;37.602;2022-07-23T13:05:49;11.25;;;8.52;;
73814;SDS011;62145;55.648;37.602;2022-07-23T13:08:14;12.10;;;8.50;;
73814;SDS011;62145;55.648;37.602;2022-07-23T13:10:40;10.77;;;8.80;;
73814;SDS011;62145;55.648;37.602;2022-07-23T13:13:09;12.47;;;9.00;;
73814;SDS011;62145;55.648;37.602;2022-07-23T13:15:35;12.77;;;9.02;;
73814;SDS011;62145;55.648;37.602;2022-07-23T13:18:01;13.13;;;9.35;;
73814;SDS011;62145;55.648;37.602;2022-07-23T13:20:27;14.40;;;8.98;;
73814;SDS011;62145;55.648;37.602;2022-07-23T13:22:53;12.33;;;8.33;;
73814;SDS011;62145;55.648;37.602;2022-07-23T13:25:19;11.55;;;8.38;;
73814;SDS011;62145;55.648;37.602;2022-07-23T13:27:45;11.40;;;8.65;;
73814;SDS011;62145;55.648;37.602;2022-07-23T13:30:11;10.83;;;8.47;;
73814;SDS011;62145;55.648;37.602;2022-07-23T13:32:37;11.13;;;8.13;;
73814;SDS011;62145;55.648;37.602;2022-07-23T13:35:03;11.07;;;8.30;;
73814;SDS011;62145;55.648;37.602;2022-07-23T13:37:29;11.13;;;8.83;;
73814;SDS011;62145;55.648;37.602;2022-07-23T13:39:55;10.75;;;8.48;;
73814;SDS011;62145;55.648;37.602;2022-07-23T13:42:21;11.82;;;8.35;;
73814;SDS011;62145;55.648;37.602;2022-07-23T13:44:46;10.90;;;7.90;;
73814;SDS011;62145;55.648;37.602;2022-07-23T13:47:12;12.98;;;8.23;;
73814;SDS011;62145;55.648;37.602;2022-07-23T13:49:38;9.88;;;7.82;;
73814;SDS011;62145;55.648;37.602;2022-07-23T13:52:04;13.37;;;8.63;;
73814;SDS011;62145;55.648;37.602;2022-07-23T13:54:30;10.35;;;8.00;;
73814;SDS011;62145;55.648;37.602;2022-07-23T13:56:56;10.27;;;8.20;;
73814;SDS011;62145;55.648;37.602;2022-07-23T13:59:22;12.10;;;8.23;;
73814;SDS011;62145;55.648;37.602;2022-07-23T14:01:48;12.70;;;8.40;;
73814;SDS011;62145;55.648;37.602;2022-07-23T14:04:14;12.00;;;8.50;;
73814;SDS011;62145;55.648;37.602;2022-07-23T14:06:39;10.60;;;8.47;;
73814;SDS011;62145;55.648;37.602;2022-07-23T14:09:05;10.50;;;7.90;;
73814;SDS011;62145;55.648;37.602;2022-07-23T14:11:31;12.55;;;8.52;;
73814;SDS011;62145;55.648;37.602;2022-07-23T14:13:58;10.20;;;7.77;;
73814;SDS011;62145;55.648;37.602;2022-07-23T14:16:26;12.48;;;8.45;;
73814;SDS011;62145;55.648;37.602;2022-07-23T14:18:52;11.32;;;8.50;;
73814;SDS011;62145;55.648;37.602;2022-07-23T14:21:21;11.30;;;8.15;;
73814;SDS011;62145;55.648;37.602;2022-07-23T14:23:47;10.23;;;8.03;;
73814;SDS011;62145;55.648;37.602;2022-07-23T14:26:13;12.05;;;8.20;;
73814;SDS011;62145;55.648;37.602;2022-07-23T14:28:39;10.35;;;7.88;;
73814;SDS011;62145;55.648;37.602;2022-07-23T14:31:05;9.70;;;7.80;;
73814;SDS011;62145;55.648;37.602;2022-07-23T14:33:31;10.77;;;8.47;;
73814;SDS011;62145;55.648;37.602;2022-07-23T14:35:57;9.85;;;7.78;;
73814;SDS011;62145;55.648;37.602;2022-07-23T14:38:24;9.95;;;8.40;;
73814;SDS011;62145;55.648;37.602;2022-07-23T14:40:53;13.18;;;7.90;;
73814;SDS011;62145;55.648;37.602;2022-07-23T14:43:23;12.02;;;8.00;;
73814;SDS011;62145;55.648;37.602;2022-07-23T14:45:48;11.27;;;7.90;;
73814;SDS011;62145;55.648;37.602;2022-07-23T14:48:14;11.65;;;7.88;;
73814;SDS011;62145;55.648;37.602;2022-07-23T14:50:40;11.77;;;8.20;;
73814;SDS011;62145;55.648;37.602;2022-07-23T14:53:06;10.80;;;8.27;;
73814;SDS011;62145;55.648;37.602;2022-07-23T14:55:32;11.35;;;8.27;;
73814;SDS011;62145;55.648;37.602;2022-07-23T14:57:58;11.38;;;8.45;;
73814;SDS011;62145;55.648;37.602;2022-07-23T15:00:24;11.43;;;8.60;;
73814;SDS011;62145;55.648;37.602;2022-07-23T15:02:51;12.18;;;8.00;;
73814;SDS011;62145;55.648;37.602;2022-07-23T15:05:17;11.80;;;8.30;;
73814;SDS011;62145;55.648;37.602;2022-07-23T15:07:43;10.02;;;7.97;;
73814;SDS011;62145;55.648;37.602;2022-07-23T15:10:09;10.10;;;7.90;;
73814;SDS011;62145;55.648;37.602;2022-07-23T15:12:36;11.20;;;7.93;;
73814;SDS011;62145;55.648;37.602;2022-07-23T15:15:02;12.60;;;8.43;;
73814;SDS011;62145;55.648;37.602;2022-07-23T15:17:29;11.68;;;7.63;;
73814;SDS011;62145;55.648;37.602;2022-07-23T15:19:55;11.63;;;8.00;;
73814;SDS011;62145;55.648;37.602;2022-07-23T15:22:21;11.13;;;7.97;;